createdAt,value
2023-03-29T05:01:52.478Z,53.46
2023-03-29T05:03:55.346Z,53.15
2023-03-29T05:06:06.568Z,52.98
2023-03-29T05:08:10.595Z,52.58
2023-03-29T05:10:13.449Z,52.63
2023-03-29T05:12:16.430Z,52.38
2023-03-29T05:14:19.204Z,52.13
2023-03-29T05:16:21.978Z,52.24
2023-03-29T05:18:26.273Z,52.25
2023-03-29T05:20:29.826Z,51.93
2023-03-29T05:22:32.758Z,52.03
2023-03-29T05:24:35.518Z,51.57
2023-03-29T05:26:38.437Z,51.68
2023-03-29T05:28:41.237Z,51.55
2023-03-29T05:30:44.517Z,51.50
2023-03-29T05:32:48.024Z,51.57
2023-03-29T05:34:52.869Z,51.47
2023-03-29T05:36:57.006Z,51.48
2023-03-29T05:39:01.786Z,50.99
2023-03-29T05:41:06.177Z,51.37
2023-03-29T05:43:09.121Z,51.29
2023-03-29T05:45:12.498Z,50.94
2023-03-29T05:47:15.492Z,51.23
2023-03-29T05:49:18.674Z,51.05
2023-03-29T05:51:24.469Z,50.72
2023-03-29T05:53:28.291Z,50.90
2023-03-29T05:55:31.118Z,50.68
2023-03-29T05:57:36.703Z,50.60
2023-03-29T05:59:39.550Z,50.46
2023-03-29T06:01:42.687Z,50.50
2023-03-29T06:03:47.069Z,50.78
2023-03-29T06:05:57.616Z,50.65
2023-03-29T06:08:01.865Z,50.49
2023-03-29T06:10:05.245Z,50.57
2023-03-29T06:12:09.022Z,50.44
2023-03-29T06:14:13.413Z,50.15
2023-03-29T06:16:16.563Z,50.51
2023-03-29T06:18:19.888Z,50.53
2023-03-29T06:20:22.678Z,50.06
2023-03-29T06:22:25.571Z,50.35
2023-03-29T06:24:29.922Z,50.40
2023-03-29T06:26:32.717Z,50.14
2023-03-29T06:28:36.801Z,50.00
2023-03-29T06:30:39.604Z,50.03
2023-03-29T06:32:42.578Z,50.28
2023-03-29T06:34:45.414Z,50.26
2023-03-29T06:36:50.901Z,50.27
2023-03-29T06:38:53.876Z,50.00
2023-03-29T06:41:06.134Z,50.24
2023-03-29T06:43:09.142Z,50.08
2023-03-29T06:45:12.732Z,50.14
2023-03-29T06:47:15.870Z,50.09
2023-03-29T06:49:18.883Z,50.26
2023-03-29T06:51:23.387Z,50.06
2023-03-29T06:53:28.140Z,50.06
2023-03-29T06:55:31.691Z,50.08
2023-03-29T06:57:35.992Z,50.16
2023-03-29T06:59:38.584Z,49.97
2023-03-29T07:01:41.641Z,49.90
2023-03-29T07:03:46.697Z,50.17
2023-03-29T07:05:51.774Z,49.82
2023-03-29T07:07:56.551Z,50.21
2023-03-29T07:10:01.726Z,50.07
2023-03-29T07:12:05.080Z,50.12
2023-03-29T07:14:09.608Z,49.74
2023-03-29T07:16:13.906Z,49.94
2023-03-29T07:18:18.362Z,50.20
2023-03-29T07:20:22.941Z,50.08
2023-03-29T07:22:26.101Z,49.91
2023-03-29T07:24:29.470Z,50.01
2023-03-29T07:26:32.314Z,49.97
2023-03-29T07:28:37.509Z,50.21
2023-03-29T07:30:41.962Z,50.04
2023-03-29T07:32:46.895Z,50.25
2023-03-29T07:34:50.102Z,50.40
2023-03-29T07:36:53.092Z,50.23
2023-03-29T07:38:57.032Z,50.27
2023-03-29T07:41:00.446Z,50.51
2023-03-29T07:43:08.825Z,50.43
2023-03-29T07:45:13.660Z,50.57
2023-03-29T07:47:17.838Z,50.53
2023-03-29T07:49:22.220Z,50.65
2023-03-29T07:51:25.374Z,50.56
2023-03-29T07:53:29.645Z,50.57
2023-03-29T07:55:32.745Z,50.47
2023-03-29T07:57:36.476Z,50.73
2023-03-29T07:59:39.258Z,50.58
2023-03-29T08:01:42.389Z,50.57
2023-03-29T08:03:46.616Z,50.85
2023-03-29T08:05:49.589Z,50.67
2023-03-29T08:07:52.921Z,50.98
2023-03-29T08:09:56.328Z,50.67
2023-03-29T08:12:00.264Z,50.76
2023-03-29T08:14:03.161Z,50.92
2023-03-29T08:16:06.836Z,50.75
2023-03-29T08:18:09.925Z,50.61
2023-03-29T08:20:16.662Z,50.75
2023-03-29T08:22:19.759Z,50.69
2023-03-29T08:24:22.713Z,50.81
2023-03-29T08:26:25.376Z,50.66
2023-03-29T08:28:28.366Z,50.82
2023-03-29T08:30:31.272Z,50.73
2023-03-29T08:32:34.131Z,50.92
2023-03-29T08:34:37.424Z,50.99
2023-03-29T08:36:41.828Z,50.74
2023-03-29T08:38:44.641Z,51.07
2023-03-29T08:40:49.209Z,51.06
2023-03-29T08:43:04.549Z,50.97
2023-03-29T08:45:14.036Z,50.98
2023-03-29T08:47:22.472Z,50.88
2023-03-29T08:49:26.994Z,50.63
2023-03-29T08:51:33.645Z,50.59
2023-03-29T08:53:44.965Z,50.98
2023-03-29T08:55:52.046Z,50.77
2023-03-29T08:57:56.790Z,50.73
2023-03-29T09:00:01.900Z,50.62
2023-03-29T09:02:12.661Z,50.81
2023-03-29T09:04:20.140Z,50.57
2023-03-29T09:06:23.368Z,50.57
2023-03-29T09:08:28.058Z,50.49
2023-03-29T09:10:40.076Z,50.52
2023-03-29T09:12:59.506Z,50.18
2023-03-29T09:15:12.618Z,50.14
2023-03-29T09:17:28.361Z,50.24
2023-03-29T09:19:38.708Z,50.00
2023-03-29T09:21:47.558Z,50.37
2023-03-29T09:24:25.233Z,50.00
2023-03-29T09:26:34.829Z,50.14
2023-03-29T09:28:43.329Z,49.92
2023-03-29T09:30:56.979Z,49.76
2023-03-29T09:33:05.518Z,49.79
2023-03-29T09:35:18.347Z,50.14
2023-03-29T09:37:26.796Z,50.00
2023-03-29T09:39:30.936Z,49.81
2023-03-29T09:41:41.182Z,49.78
2023-03-29T09:43:46.025Z,49.93
2023-03-29T09:45:54.519Z,50.15
2023-03-29T09:48:02.045Z,50.01
2023-03-29T09:50:23.106Z,50.01
2023-03-29T09:52:30.659Z,49.89
2023-03-29T09:54:33.794Z,50.11
2023-03-29T09:56:38.120Z,50.20
2023-03-29T09:58:43.488Z,50.08
2023-03-29T10:00:48.515Z,50.21
2023-03-29T10:02:52.775Z,49.89
2023-03-29T10:04:58.812Z,50.13
2023-03-29T10:07:01.727Z,49.85
2023-03-29T10:09:05.934Z,49.73
2023-03-29T10:11:13.561Z,50.03
2023-03-29T10:13:23.866Z,49.79
2023-03-29T10:15:30.386Z,50.10
2023-03-29T10:17:40.586Z,49.92
2023-03-29T10:19:50.331Z,49.77
2023-03-29T10:21:55.187Z,49.73
2023-03-29T10:23:59.704Z,49.60
2023-03-29T10:26:04.772Z,49.69
2023-03-29T10:28:13.016Z,49.35
2023-03-29T10:30:24.777Z,49.55
2023-03-29T10:32:32.454Z,49.36
2023-03-29T10:34:35.490Z,49.42
2023-03-29T10:36:42.553Z,49.44
2023-03-29T10:38:45.703Z,49.59
2023-03-29T10:40:51.664Z,49.55
2023-03-29T10:42:54.866Z,49.56
2023-03-29T10:44:59.298Z,49.47
2023-03-29T10:47:17.556Z,49.28
2023-03-29T10:49:22.734Z,49.29
2023-03-29T10:51:30.052Z,49.16
2023-03-29T10:53:34.683Z,49.22
2023-03-29T10:55:44.941Z,49.14
2023-03-29T10:57:58.835Z,49.27
2023-03-29T11:00:07.982Z,49.16
2023-03-29T11:02:49.492Z,49.34
2023-03-29T11:05:06.829Z,49.55
2023-03-29T11:07:27.178Z,49.53
2023-03-29T11:09:44.272Z,49.39
2023-03-29T11:12:14.497Z,49.48
2023-03-29T11:14:29.100Z,49.52
2023-03-29T11:16:39.933Z,49.56
2023-03-29T11:18:56.899Z,49.99
2023-03-29T11:21:10.790Z,49.76
2023-03-29T11:23:28.396Z,50.01
2023-03-29T11:25:46.177Z,49.89
2023-03-29T11:27:54.408Z,50.21
2023-03-29T11:30:08.523Z,50.21
2023-03-29T11:32:16.002Z,50.11
2023-03-29T11:34:29.545Z,50.08
2023-03-29T11:36:42.410Z,50.27
2023-03-29T11:38:51.089Z,50.21
2023-03-29T11:41:03.410Z,50.22
2023-03-29T11:43:12.522Z,50.21
2023-03-29T11:45:34.145Z,49.95
2023-03-29T11:47:42.094Z,49.97
2023-03-29T11:49:49.263Z,49.98
2023-03-29T11:51:58.018Z,50.05
2023-03-29T11:54:05.573Z,50.03
2023-03-29T11:56:13.201Z,49.95
2023-03-29T11:58:25.325Z,49.92
2023-03-29T12:00:32.747Z,49.74
2023-03-29T12:02:39.363Z,49.82
2023-03-29T12:04:47.171Z,50.04
2023-03-29T12:06:57.434Z,49.93
2023-03-29T12:09:05.327Z,49.98
2023-03-29T12:11:15.154Z,49.95
2023-03-29T12:13:22.919Z,50.12
2023-03-29T12:15:28.811Z,49.90
2023-03-29T12:17:34.078Z,49.80
2023-03-29T12:19:43.712Z,50.17
2023-03-29T12:21:48.441Z,50.01
2023-03-29T12:23:53.415Z,50.26
2023-03-29T12:26:05.053Z,50.03
2023-03-29T12:28:24.192Z,50.29
2023-03-29T12:30:40.186Z,50.18
2023-03-29T12:32:55.661Z,50.01
2023-03-29T12:35:12.752Z,50.21
2023-03-29T12:37:32.256Z,50.16
2023-03-29T12:39:39.497Z,49.93
2023-03-29T12:41:46.022Z,50.00
2023-03-29T12:43:52.559Z,50.08
2023-03-29T12:45:59.103Z,50.07
2023-03-29T12:48:02.773Z,50.15
2023-03-29T12:50:07.952Z,49.96
2023-03-29T12:52:27.490Z,49.86
2023-03-29T12:54:34.353Z,49.81
2023-03-29T12:56:42.421Z,49.61
2023-03-29T12:58:55.114Z,49.86
2023-03-29T13:01:06.811Z,49.77
2023-03-29T13:03:22.601Z,49.84
2023-03-29T13:05:32.876Z,50.02
2023-03-29T13:07:47.470Z,50.13
2023-03-29T13:09:53.038Z,50.09
2023-03-29T13:11:59.314Z,49.91
2023-03-29T13:14:05.443Z,50.16
2023-03-29T13:16:13.918Z,50.09
2023-03-29T13:18:37.392Z,50.07
2023-03-29T13:20:47.774Z,50.22
2023-03-29T13:23:04.353Z,50.30
2023-03-29T13:25:20.005Z,50.30
2023-03-29T13:27:37.281Z,50.24
2023-03-29T13:29:57.654Z,50.00
2023-03-29T13:32:07.267Z,50.01
2023-03-29T13:34:22.667Z,49.89
2023-03-29T13:36:44.326Z,50.00
2023-03-29T13:38:49.726Z,49.81
2023-03-29T13:41:02.727Z,49.88
2023-03-29T13:43:20.161Z,49.46
2023-03-29T13:45:27.613Z,49.17
2023-03-29T13:47:48.972Z,49.03
2023-03-29T13:50:05.949Z,49.08
2023-03-29T13:52:16.760Z,49.29
2023-03-29T13:54:28.014Z,49.04
2023-03-29T13:56:35.584Z,49.07
2023-03-29T13:58:46.465Z,48.91
2023-03-29T14:00:54.284Z,48.75
2023-03-29T14:03:01.418Z,48.77
2023-03-29T14:05:09.160Z,48.78
2023-03-29T14:07:16.167Z,48.47
2023-03-29T14:09:23.883Z,48.48
2023-03-29T14:11:28.988Z,48.48
2023-03-29T14:13:32.207Z,48.45
2023-03-29T14:15:46.046Z,48.31
2023-03-29T14:17:49.127Z,48.06
2023-03-29T14:19:52.360Z,47.89
2023-03-29T14:21:55.450Z,47.93
2023-03-29T14:24:02.640Z,47.99
2023-03-29T14:26:08.766Z,47.74
2023-03-29T14:28:21.054Z,47.59
2023-03-29T14:30:28.299Z,47.79
2023-03-29T14:32:33.163Z,47.65
2023-03-29T14:34:36.310Z,47.67
2023-03-29T14:36:40.219Z,47.44
2023-03-29T14:38:53.249Z,47.26
2023-03-29T14:41:06.879Z,47.28
2023-03-29T14:43:11.222Z,47.13
2023-03-29T14:45:16.514Z,47.18
2023-03-29T14:47:26.587Z,47.20
2023-03-29T14:49:31.416Z,47.30
2023-03-29T14:51:34.820Z,47.29
2023-03-29T14:53:38.994Z,47.22
2023-03-29T14:55:42.669Z,47.28
2023-03-29T14:57:49.185Z,47.10
2023-03-29T14:59:55.681Z,47.32
2023-03-29T15:01:58.527Z,47.34
2023-03-29T15:04:05.646Z,47.22
2023-03-29T15:06:10.035Z,47.37
2023-03-29T15:08:18.688Z,47.33
2023-03-29T15:10:21.702Z,47.33
2023-03-29T15:12:24.790Z,47.34
2023-03-29T15:14:33.589Z,47.25
2023-03-29T15:16:40.052Z,47.43
2023-03-29T15:18:45.202Z,47.17
2023-03-29T15:20:54.399Z,47.42
2023-03-29T15:23:01.076Z,47.36
2023-03-29T15:25:03.986Z,47.42
2023-03-29T15:27:15.756Z,47.28
2023-03-29T15:29:24.371Z,47.30
2023-03-29T15:31:34.543Z,47.04
2023-03-29T15:33:38.608Z,46.88
2023-03-29T15:35:41.872Z,46.73
2023-03-29T15:37:44.598Z,46.81
2023-03-29T15:39:48.982Z,46.53
2023-03-29T15:41:53.831Z,46.81
2023-03-29T15:44:00.076Z,46.87
2023-03-29T15:46:03.089Z,46.74
2023-03-29T15:48:15.444Z,46.66
2023-03-29T15:50:18.312Z,46.80
2023-03-29T15:52:21.100Z,46.88
2023-03-29T15:54:24.672Z,46.80
2023-03-29T15:56:29.366Z,46.90
2023-03-29T15:58:33.542Z,47.05
2023-03-29T16:00:40.633Z,46.94
2023-03-29T16:02:43.578Z,47.01
2023-03-29T16:04:46.606Z,46.97
2023-03-29T16:06:52.758Z,46.96
2023-03-29T16:08:57.220Z,46.84
2023-03-29T16:11:00.424Z,46.86
2023-03-29T16:13:04.774Z,46.94
2023-03-29T16:15:16.561Z,47.01
2023-03-29T16:17:19.357Z,46.81
2023-03-29T16:19:22.293Z,47.05
2023-03-29T16:21:25.638Z,46.95
2023-03-29T16:23:28.604Z,46.85
2023-03-29T16:25:31.348Z,46.99
2023-03-29T16:27:34.137Z,47.03
2023-03-29T16:29:38.306Z,46.94
2023-03-29T16:31:41.585Z,46.82
2023-03-29T16:33:44.554Z,46.92
2023-03-29T16:35:47.537Z,46.98
2023-03-29T16:37:50.374Z,46.98
2023-03-29T16:39:53.671Z,46.95
2023-03-29T16:41:56.727Z,47.01
2023-03-29T16:43:59.857Z,47.07
2023-03-29T16:46:06.683Z,47.13
2023-03-29T16:48:13.112Z,47.29
2023-03-29T16:50:17.969Z,47.08
2023-03-29T16:52:21.129Z,47.05
2023-03-29T16:54:25.776Z,47.08
2023-03-29T16:56:28.778Z,47.06
2023-03-29T16:58:31.681Z,47.21
2023-03-29T17:00:34.451Z,46.91
2023-03-29T17:02:38.552Z,47.07
2023-03-29T17:04:41.394Z,47.18
2023-03-29T17:06:44.211Z,46.95
2023-03-29T17:08:47.342Z,47.08
2023-03-29T17:10:53.919Z,47.10
2023-03-29T17:12:56.616Z,47.24
2023-03-29T17:14:59.475Z,47.26
2023-03-29T17:17:02.393Z,47.27
2023-03-29T17:19:06.536Z,47.49
2023-03-29T17:21:09.764Z,47.69
2023-03-29T17:23:12.743Z,47.72
2023-03-29T17:25:15.573Z,47.76
2023-03-29T17:27:18.801Z,47.90
2023-03-29T17:29:21.614Z,47.95
2023-03-29T17:31:24.513Z,48.17
2023-03-29T17:33:27.261Z,48.19
2023-03-29T17:35:31.577Z,48.47
2023-03-29T17:37:34.390Z,48.48
2023-03-29T17:39:37.746Z,48.56
2023-03-29T17:41:40.795Z,48.46
2023-03-29T17:43:43.637Z,48.73
2023-03-29T17:45:46.550Z,48.76
2023-03-29T17:47:49.335Z,48.90
2023-03-29T17:49:52.181Z,49.13
2023-03-29T17:51:56.374Z,49.03
2023-03-29T17:53:59.320Z,49.16
2023-03-29T17:56:02.366Z,49.28
2023-03-29T17:58:05.522Z,49.27
2023-03-29T18:00:12.066Z,49.39
2023-03-29T18:02:18.257Z,49.42
2023-03-29T18:04:21.118Z,49.42
2023-03-29T18:06:23.936Z,49.58
2023-03-29T18:08:28.218Z,49.83
2023-03-29T18:10:31.220Z,49.63
2023-03-29T18:12:33.972Z,49.91
2023-03-29T18:14:37.021Z,49.93
2023-03-29T18:16:41.303Z,50.00
2023-03-29T18:18:46.300Z,49.94
2023-03-29T18:20:49.047Z,50.14
2023-03-29T18:22:51.835Z,49.93
2023-03-29T18:24:56.337Z,50.12
2023-03-29T18:26:59.271Z,50.10
2023-03-29T18:29:02.090Z,49.91
2023-03-29T18:31:05.505Z,50.18
2023-03-29T18:33:08.351Z,49.89
2023-03-29T18:35:11.985Z,49.89
2023-03-29T18:37:17.339Z,50.07
2023-03-29T18:39:20.085Z,50.00
2023-03-29T18:41:24.449Z,49.77
2023-03-29T18:43:27.168Z,49.99
2023-03-29T18:45:30.066Z,50.00
2023-03-29T18:47:32.961Z,49.72
2023-03-29T18:49:36.530Z,49.94
2023-03-29T18:51:39.401Z,49.83
2023-03-29T18:53:43.662Z,49.75
2023-03-29T18:55:46.538Z,49.73
2023-03-29T18:57:50.729Z,49.67
2023-03-29T18:59:53.554Z,49.73
2023-03-29T19:01:56.318Z,49.59
2023-03-29T19:03:59.176Z,49.61
2023-03-29T19:06:02.706Z,49.70
2023-03-29T19:08:06.943Z,49.77
2023-03-29T19:10:12.197Z,49.67
2023-03-29T19:12:17.549Z,49.75
2023-03-29T19:14:24.181Z,49.60
2023-03-29T19:16:27.644Z,49.49
2023-03-29T19:18:30.459Z,49.39
2023-03-29T19:20:33.282Z,49.54
2023-03-29T19:22:36.280Z,49.52
2023-03-29T19:24:39.221Z,49.49
2023-03-29T19:26:43.557Z,49.31
2023-03-29T19:28:46.457Z,49.39
2023-03-29T19:30:50.718Z,49.30
2023-03-29T19:32:53.700Z,49.39
2023-03-29T19:34:58.375Z,49.29
2023-03-29T19:37:01.429Z,49.32
2023-03-29T19:39:04.420Z,49.38
2023-03-29T19:41:08.855Z,49.14
2023-03-29T19:43:16.268Z,49.31
2023-03-29T19:45:19.108Z,49.18
2023-03-29T19:47:23.037Z,49.17
2023-03-29T19:49:26.021Z,49.25
2023-03-29T19:51:29.330Z,49.23
2023-03-29T19:53:33.158Z,49.19
2023-03-29T19:55:37.739Z,49.27
2023-03-29T19:57:40.649Z,49.34
2023-03-29T19:59:44.415Z,49.02
2023-03-29T20:01:51.093Z,49.01
2023-03-29T20:03:55.577Z,49.19
2023-03-29T20:05:58.651Z,49.12
2023-03-29T20:08:02.264Z,49.28
2023-03-29T20:10:05.652Z,49.22
2023-03-29T20:12:08.902Z,49.29
2023-03-29T20:14:12.276Z,49.19
2023-03-29T20:16:17.193Z,49.17
2023-03-29T20:18:20.703Z,49.19
2023-03-29T20:20:25.206Z,49.17
2023-03-29T20:22:30.843Z,49.27
2023-03-29T20:24:34.768Z,49.24
2023-03-29T20:26:37.970Z,49.21
2023-03-29T20:28:40.887Z,49.41
2023-03-29T20:30:44.236Z,49.41
2023-03-29T20:32:47.665Z,49.28
2023-03-29T20:34:50.690Z,49.34
2023-03-29T20:37:00.608Z,49.51
2023-03-29T20:39:04.970Z,49.52
2023-03-29T20:41:09.207Z,49.47
2023-03-29T20:43:18.829Z,49.40
2023-03-29T20:45:21.605Z,49.41
2023-03-29T20:47:24.773Z,49.53
2023-03-29T20:49:27.528Z,49.56
2023-03-29T20:51:31.925Z,49.50
2023-03-29T20:53:36.080Z,49.69
2023-03-29T20:55:39.075Z,49.84
2023-03-29T20:57:42.303Z,49.71
2023-03-29T20:59:46.119Z,49.90
2023-03-29T21:01:50.359Z,49.89
2023-03-29T21:03:53.299Z,49.84
2023-03-29T21:05:58.114Z,50.02
2023-03-29T21:08:01.397Z,50.00
2023-03-29T21:10:06.936Z,50.00
2023-03-29T21:12:09.667Z,49.62
2023-03-29T21:14:12.532Z,50.05
2023-03-29T21:16:15.714Z,50.08
2023-03-29T21:18:18.532Z,49.88
2023-03-29T21:20:21.358Z,50.04
2023-03-29T21:22:24.665Z,50.04
2023-03-29T21:24:27.376Z,50.22
2023-03-29T21:26:31.506Z,50.23
2023-03-29T21:28:34.740Z,50.13
2023-03-29T21:30:37.552Z,50.10
2023-03-29T21:32:41.471Z,50.10
2023-03-29T21:34:44.301Z,50.08
2023-03-29T21:36:47.300Z,50.26
2023-03-29T21:38:50.105Z,50.41
2023-03-29T21:40:53.308Z,50.22
2023-03-29T21:42:57.723Z,50.28
2023-03-29T21:45:01.022Z,50.12
2023-03-29T21:47:04.196Z,50.25
2023-03-29T21:49:06.965Z,50.13
